createdAt,value
2023-01-28T00:07:12.973Z,9.97
2023-01-28T00:22:15.382Z,9.73
2023-01-28T00:37:17.842Z,9.00
2023-01-28T00:52:20.195Z,8.80
2023-01-28T01:07:32.075Z,8.83
2023-01-28T01:22:36.495Z,9.17
2023-01-28T01:37:38.865Z,9.00
2023-01-28T01:52:42.587Z,10.50
2023-01-28T02:07:47.364Z,10.27
2023-01-28T02:23:42.091Z,13.77
2023-01-28T02:38:50.596Z,12.73
2023-01-28T02:54:26.889Z,15.70
2023-01-28T03:09:32.092Z,17.13
2023-01-28T03:25:01.086Z,19.07
2023-01-28T03:40:08.194Z,19.40
2023-01-28T03:55:14.410Z,22.37
2023-01-28T04:10:18.840Z,24.07
2023-01-28T04:25:29.500Z,26.40
2023-01-28T04:40:32.173Z,27.03
2023-01-28T04:55:40.295Z,20.50
2023-01-28T05:10:42.865Z,21.20
2023-01-28T05:25:45.807Z,20.87
2023-01-28T05:40:48.634Z,21.03
2023-01-28T05:55:53.364Z,23.20
2023-01-28T06:10:56.146Z,21.40
2023-01-28T06:26:00.289Z,23.27
2023-01-28T06:41:04.667Z,21.43
2023-01-28T06:56:08.462Z,20.33
2023-01-28T07:11:11.248Z,16.43
2023-01-28T07:26:13.992Z,16.20
2023-01-28T07:41:16.448Z,59.23
2023-01-28T07:56:18.716Z,19.70
2023-01-28T08:11:21.660Z,18.37
2023-01-28T08:26:24.037Z,19.97
2023-01-28T08:41:26.543Z,22.03
2023-01-28T08:56:30.945Z,20.13
2023-01-28T09:11:33.443Z,21.13
2023-01-28T09:26:35.741Z,21.23
2023-01-28T09:42:22.608Z,22.73
2023-01-28T09:57:29.950Z,23.20
2023-01-28T10:12:43.594Z,24.63
2023-01-28T10:27:49.326Z,25.20
2023-01-28T10:42:51.799Z,31.23
2023-01-28T10:57:54.743Z,28.07
2023-01-28T11:12:58.932Z,31.67
2023-01-28T11:28:05.192Z,29.93
2023-01-28T11:43:09.051Z,30.37
2023-01-28T11:58:37.453Z,27.40
2023-01-28T12:14:07.106Z,28.40
2023-01-28T12:29:35.285Z,26.13
2023-01-28T12:45:16.424Z,25.67
2023-01-28T13:00:39.407Z,34.17
2023-01-28T13:15:43.910Z,27.20
2023-01-28T13:30:49.647Z,28.10
2023-01-28T13:46:04.403Z,24.07
2023-01-28T14:01:44.268Z,27.67
2023-01-28T14:16:58.269Z,28.43
2023-01-28T14:32:06.507Z,28.60
2023-01-28T14:47:41.950Z,26.07
2023-01-28T15:02:44.853Z,22.17
2023-01-28T15:17:49.581Z,22.80
2023-01-28T15:33:06.869Z,23.43
2023-01-28T15:48:12.216Z,23.13
2023-01-28T16:03:21.906Z,24.40
2023-01-28T16:18:35.255Z,22.93
2023-01-28T16:33:37.664Z,26.57
2023-01-28T16:48:40.084Z,33.30
2023-01-28T17:03:42.622Z,26.60
2023-01-28T17:18:46.325Z,21.47
2023-01-28T17:33:56.872Z,20.63
2023-01-28T17:48:59.205Z,29.57
2023-01-28T18:04:01.651Z,39.57
2023-01-28T18:19:06.165Z,27.13
2023-01-28T18:34:08.659Z,46.10
2023-01-28T18:49:11.181Z,32.27
2023-01-28T19:04:15.437Z,27.40
2023-01-28T19:19:18.203Z,51.13
2023-01-28T19:34:21.197Z,32.83
2023-01-28T19:49:23.889Z,29.50
2023-01-28T20:04:26.374Z,43.63
2023-01-28T20:19:28.903Z,33.40
2023-01-28T20:34:31.393Z,34.37
2023-01-28T20:49:34.318Z,37.43
2023-01-28T21:04:36.682Z,39.13
2023-01-28T21:19:39.147Z,29.73
2023-01-28T21:34:42.552Z,34.50
2023-01-28T21:49:45.140Z,42.93
2023-01-28T22:04:49.602Z,41.33
2023-01-28T22:19:52.086Z,37.10
2023-01-28T22:34:54.484Z,35.30
2023-01-28T22:49:57.016Z,35.93
2023-01-28T23:04:59.565Z,37.27
2023-01-28T23:20:21.111Z,33.27
2023-01-28T23:35:27.446Z,35.27
2023-01-28T23:50:29.867Z,38.10
